createdAt,value
2022-12-31T00:00:22.561Z,984.48
2022-12-31T00:01:22.663Z,984.47
2022-12-31T00:02:22.950Z,984.51
2022-12-31T00:03:22.655Z,984.49
2022-12-31T00:04:22.502Z,984.59
2022-12-31T00:05:22.405Z,984.64
2022-12-31T00:06:22.471Z,984.66
2022-12-31T00:07:22.390Z,984.64
2022-12-31T00:08:22.379Z,984.63
2022-12-31T00:09:22.374Z,984.71
2022-12-31T00:10:22.413Z,984.68
2022-12-31T00:11:22.346Z,984.74
2022-12-31T00:12:22.363Z,984.68
2022-12-31T00:13:22.348Z,984.74
2022-12-31T00:14:22.333Z,984.73
2022-12-31T00:15:22.371Z,984.74
2022-12-31T00:16:22.350Z,984.72
2022-12-31T00:17:22.505Z,984.74
2022-12-31T00:18:22.313Z,984.75
2022-12-31T00:19:22.313Z,984.75
2022-12-31T00:20:22.291Z,984.75
2022-12-31T00:21:22.254Z,984.78
2022-12-31T00:22:22.247Z,984.76
2022-12-31T00:23:22.272Z,984.74
2022-12-31T00:24:22.256Z,984.73
2022-12-31T00:25:22.255Z,984.77
2022-12-31T00:26:22.240Z,984.71
2022-12-31T00:27:22.282Z,984.74
2022-12-31T00:28:22.259Z,984.69
2022-12-31T00:29:22.175Z,984.65
2022-12-31T00:30:22.174Z,984.65
2022-12-31T00:31:22.238Z,984.74
2022-12-31T00:32:22.182Z,984.67
2022-12-31T00:33:22.225Z,984.77
2022-12-31T00:34:22.183Z,984.74
2022-12-31T00:35:22.144Z,984.79
2022-12-31T00:36:22.217Z,984.80
2022-12-31T00:37:22.103Z,984.82
2022-12-31T00:38:22.129Z,984.83
2022-12-31T00:39:22.124Z,984.81
2022-12-31T00:40:22.099Z,984.83
2022-12-31T00:41:22.103Z,984.84
2022-12-31T00:42:22.091Z,984.80
2022-12-31T00:43:22.070Z,984.84
2022-12-31T00:44:22.081Z,984.94
2022-12-31T00:45:22.072Z,984.90
2022-12-31T00:46:22.130Z,984.87
2022-12-31T00:47:22.231Z,984.94
2022-12-31T00:48:22.065Z,984.95
2022-12-31T00:49:22.025Z,984.95
2022-12-31T00:50:22.230Z,984.94
2022-12-31T00:51:22.000Z,984.96
2022-12-31T00:52:22.013Z,985.03
2022-12-31T00:53:21.993Z,985.08
2022-12-31T00:54:21.975Z,985.11
2022-12-31T00:55:21.983Z,985.07
2022-12-31T00:56:22.131Z,985.13
2022-12-31T00:57:21.956Z,985.11
2022-12-31T00:58:21.963Z,985.06
2022-12-31T00:59:21.931Z,985.09
2022-12-31T01:00:21.912Z,985.08
2022-12-31T01:01:22.031Z,985.12
2022-12-31T01:02:22.151Z,985.17
2022-12-31T01:03:21.967Z,985.24
2022-12-31T01:04:21.896Z,985.26
2022-12-31T01:05:21.853Z,985.26
2022-12-31T01:06:21.863Z,985.22
2022-12-31T01:07:21.821Z,985.20
2022-12-31T01:08:22.439Z,985.25
2022-12-31T01:09:21.854Z,985.22
2022-12-31T01:10:21.993Z,985.28
2022-12-31T01:11:21.839Z,985.28
2022-12-31T01:12:21.811Z,985.27
2022-12-31T01:13:21.850Z,985.25
2022-12-31T01:14:21.799Z,985.30
2022-12-31T01:15:21.993Z,985.30
2022-12-31T01:16:21.767Z,985.35
2022-12-31T01:17:21.959Z,985.32
2022-12-31T01:18:21.757Z,985.41
2022-12-31T01:19:21.747Z,985.40
2022-12-31T01:20:21.732Z,985.40
2022-12-31T01:21:21.725Z,985.44
2022-12-31T01:22:21.742Z,985.44
2022-12-31T01:23:21.902Z,985.43
2022-12-31T01:24:21.750Z,985.37
2022-12-31T01:25:21.895Z,985.40
2022-12-31T01:26:21.899Z,985.42
2022-12-31T01:27:21.668Z,985.41
2022-12-31T01:28:21.686Z,985.47
2022-12-31T01:29:21.631Z,985.48
2022-12-31T01:30:21.639Z,985.53
2022-12-31T01:31:21.682Z,985.49
2022-12-31T01:32:21.631Z,985.46
2022-12-31T01:33:21.617Z,985.55
2022-12-31T01:34:21.847Z,985.49
2022-12-31T01:35:21.592Z,985.50
2022-12-31T01:36:25.604Z,985.54
2022-12-31T01:37:21.593Z,985.55
2022-12-31T01:38:21.565Z,985.52
2022-12-31T01:39:21.562Z,985.42
2022-12-31T01:40:21.560Z,985.35
2022-12-31T01:41:21.521Z,985.40
2022-12-31T01:42:21.521Z,985.36
2022-12-31T01:43:21.513Z,985.34
2022-12-31T01:44:21.501Z,985.34
2022-12-31T01:45:21.482Z,985.35
2022-12-31T01:46:21.497Z,985.34
2022-12-31T01:47:21.505Z,985.38
2022-12-31T01:48:21.520Z,985.33
2022-12-31T01:49:21.536Z,985.36
2022-12-31T01:50:21.442Z,985.34
2022-12-31T01:51:21.442Z,985.38
2022-12-31T01:52:21.437Z,985.42
2022-12-31T01:53:21.445Z,985.42
2022-12-31T01:54:21.416Z,985.44
2022-12-31T01:55:21.408Z,985.46
2022-12-31T01:56:21.449Z,985.54
2022-12-31T01:57:21.617Z,985.44
2022-12-31T01:58:21.385Z,985.48
2022-12-31T01:59:21.582Z,985.49
2022-12-31T02:00:21.332Z,985.46
2022-12-31T02:01:21.431Z,985.43
2022-12-31T02:02:21.488Z,985.44
2022-12-31T02:03:21.374Z,985.45
2022-12-31T02:04:21.345Z,985.44
2022-12-31T02:05:21.302Z,985.40
2022-12-31T02:06:21.312Z,985.41
2022-12-31T02:07:21.302Z,985.40
2022-12-31T02:08:21.275Z,985.36
2022-12-31T02:09:21.314Z,985.37
2022-12-31T02:10:21.304Z,985.41
2022-12-31T02:11:21.243Z,985.40
2022-12-31T02:12:21.273Z,985.37
2022-12-31T02:13:21.231Z,985.41
2022-12-31T02:14:21.210Z,985.32
2022-12-31T02:15:21.195Z,985.32
2022-12-31T02:16:21.207Z,985.29
2022-12-31T02:17:21.202Z,985.31
2022-12-31T02:18:21.205Z,985.35
2022-12-31T02:19:21.173Z,985.35
2022-12-31T02:20:21.153Z,985.39
2022-12-31T02:21:21.185Z,985.37
2022-12-31T02:22:21.124Z,985.38
2022-12-31T02:23:21.132Z,985.36
2022-12-31T02:24:21.118Z,985.38
2022-12-31T02:25:21.124Z,985.44
2022-12-31T02:26:21.121Z,985.45
2022-12-31T02:27:21.137Z,985.48
2022-12-31T02:28:21.130Z,985.42
2022-12-31T02:29:21.082Z,985.41
2022-12-31T02:30:21.095Z,985.45
2022-12-31T02:31:21.104Z,985.46
2022-12-31T02:32:21.104Z,985.50
2022-12-31T02:33:21.074Z,985.43
2022-12-31T02:34:21.046Z,985.39
2022-12-31T02:35:21.025Z,985.41
2022-12-31T02:36:21.019Z,985.40
2022-12-31T02:37:20.999Z,985.43
2022-12-31T02:38:21.044Z,985.41
2022-12-31T02:39:21.017Z,985.36
2022-12-31T02:40:20.998Z,985.35
2022-12-31T02:41:20.968Z,985.33
2022-12-31T02:42:21.223Z,985.38
2022-12-31T02:43:20.950Z,985.35
2022-12-31T02:44:21.006Z,985.38
2022-12-31T02:45:20.957Z,985.38
2022-12-31T02:46:20.985Z,985.40
2022-12-31T02:47:20.952Z,985.30
2022-12-31T02:48:20.910Z,985.27
2022-12-31T02:49:20.932Z,985.13
2022-12-31T02:50:20.898Z,985.10
2022-12-31T02:51:20.888Z,985.01
2022-12-31T02:52:20.916Z,985.06
2022-12-31T02:53:20.904Z,985.02
2022-12-31T02:54:20.870Z,985.13
2022-12-31T02:55:20.862Z,985.14
2022-12-31T02:56:20.848Z,985.14
2022-12-31T02:57:20.848Z,985.14
2022-12-31T02:58:20.853Z,985.13
2022-12-31T02:59:20.832Z,985.07
2022-12-31T03:00:20.855Z,985.10
2022-12-31T03:01:20.904Z,985.08
2022-12-31T03:02:21.101Z,985.11
2022-12-31T03:03:20.974Z,985.08
2022-12-31T03:04:20.783Z,985.10
2022-12-31T03:05:20.753Z,985.06
2022-12-31T03:06:20.775Z,985.05
2022-12-31T03:07:20.752Z,985.01
2022-12-31T03:08:20.759Z,985.04
2022-12-31T03:09:20.916Z,985.06
2022-12-31T03:10:20.929Z,985.07
2022-12-31T03:11:20.736Z,985.10
2022-12-31T03:12:20.698Z,985.02
2022-12-31T03:13:20.706Z,985.06
2022-12-31T03:14:20.752Z,985.08
2022-12-31T03:15:20.701Z,985.07
2022-12-31T03:16:20.710Z,985.06
2022-12-31T03:17:20.690Z,985.13
2022-12-31T03:18:20.835Z,985.13
2022-12-31T03:19:20.658Z,985.17
2022-12-31T03:20:20.634Z,985.09
2022-12-31T03:21:20.633Z,985.14
2022-12-31T03:22:20.809Z,985.09
2022-12-31T03:23:20.629Z,985.06
2022-12-31T03:24:20.610Z,984.97
2022-12-31T03:25:20.583Z,984.96
2022-12-31T03:26:20.601Z,984.97
2022-12-31T03:27:20.577Z,985.05
2022-12-31T03:28:20.549Z,984.98
2022-12-31T03:29:20.595Z,985.07
2022-12-31T03:30:20.532Z,985.03
2022-12-31T03:31:20.551Z,985.01
2022-12-31T03:32:20.779Z,984.98
2022-12-31T03:33:20.532Z,984.95
2022-12-31T03:34:20.496Z,984.88
2022-12-31T03:35:20.510Z,984.88
2022-12-31T03:36:20.484Z,984.95
2022-12-31T03:37:20.518Z,984.96
2022-12-31T03:38:20.472Z,984.85
2022-12-31T03:39:20.508Z,984.92
2022-12-31T03:40:20.481Z,984.85
2022-12-31T03:41:20.479Z,984.90
2022-12-31T03:42:20.435Z,984.83
2022-12-31T03:43:20.475Z,984.85
2022-12-31T03:44:20.462Z,984.85
2022-12-31T03:45:20.431Z,984.90
2022-12-31T03:46:20.438Z,984.84
2022-12-31T03:47:20.438Z,984.87
2022-12-31T03:48:20.486Z,984.83
2022-12-31T03:49:20.410Z,984.83
2022-12-31T03:50:20.399Z,984.91
2022-12-31T03:51:20.393Z,985.00
2022-12-31T03:52:20.374Z,984.99
2022-12-31T03:53:20.373Z,985.02
2022-12-31T03:54:20.356Z,984.89
2022-12-31T03:55:20.391Z,984.97
2022-12-31T03:56:20.558Z,984.95
2022-12-31T03:57:20.338Z,984.84
2022-12-31T03:58:20.319Z,984.93
2022-12-31T03:59:20.311Z,984.94
2022-12-31T04:00:20.418Z,984.93
2022-12-31T04:01:20.457Z,984.89
2022-12-31T04:02:26.293Z,984.91
2022-12-31T04:03:20.352Z,984.93
2022-12-31T04:04:20.280Z,984.93
2022-12-31T04:05:20.257Z,985.05
2022-12-31T04:06:20.240Z,984.93
2022-12-31T04:07:20.267Z,984.97
2022-12-31T04:08:20.237Z,985.07
2022-12-31T04:09:20.203Z,985.10
2022-12-31T04:10:20.244Z,985.13
2022-12-31T04:11:21.144Z,985.11
2022-12-31T04:12:20.241Z,985.14
2022-12-31T04:13:20.384Z,985.19
2022-12-31T04:14:20.166Z,985.25
2022-12-31T04:15:20.177Z,985.20
2022-12-31T04:16:20.235Z,985.18
2022-12-31T04:17:20.172Z,985.09
2022-12-31T04:18:20.149Z,985.06
2022-12-31T04:19:20.128Z,985.02
2022-12-31T04:20:20.228Z,984.97
2022-12-31T04:21:20.316Z,984.98
2022-12-31T04:22:20.140Z,985.00
2022-12-31T04:23:20.104Z,985.02
2022-12-31T04:24:20.134Z,984.96
2022-12-31T04:25:20.312Z,985.01
2022-12-31T04:26:20.159Z,984.88
2022-12-31T04:27:20.101Z,984.99
2022-12-31T04:28:20.091Z,985.01
2022-12-31T04:29:20.142Z,985.04
2022-12-31T04:30:20.049Z,984.97
2022-12-31T04:31:20.111Z,985.03
2022-12-31T04:32:20.267Z,985.06
2022-12-31T04:33:20.084Z,985.08
2022-12-31T04:34:20.024Z,984.97
2022-12-31T04:35:20.187Z,985.01
2022-12-31T04:36:20.076Z,984.95
2022-12-31T04:37:20.014Z,985.00
2022-12-31T04:38:20.223Z,984.98
2022-12-31T04:39:20.012Z,984.97
2022-12-31T04:40:19.992Z,985.01
2022-12-31T04:41:19.961Z,984.89
2022-12-31T04:42:19.961Z,984.85
2022-12-31T04:43:19.992Z,984.81
2022-12-31T04:44:19.929Z,984.88
2022-12-31T04:45:19.918Z,984.88
2022-12-31T04:46:20.009Z,984.82
2022-12-31T04:47:23.541Z,984.92
2022-12-31T04:48:19.918Z,985.06
2022-12-31T04:49:19.887Z,984.96
2022-12-31T04:50:19.893Z,985.00
2022-12-31T04:51:19.893Z,985.04
2022-12-31T04:52:19.924Z,984.97
2022-12-31T04:53:19.875Z,984.95
2022-12-31T04:54:19.904Z,984.93
2022-12-31T04:55:19.834Z,984.93
2022-12-31T04:56:19.860Z,984.92
2022-12-31T04:57:19.841Z,984.90
2022-12-31T04:58:19.823Z,984.91
2022-12-31T04:59:19.837Z,984.95
2022-12-31T05:00:19.860Z,984.98
2022-12-31T05:01:19.938Z,984.98
2022-12-31T05:02:20.027Z,985.04
2022-12-31T05:03:19.846Z,985.08
2022-12-31T05:04:19.794Z,985.05
2022-12-31T05:05:19.727Z,985.05
2022-12-31T05:06:19.820Z,984.99
2022-12-31T05:07:19.737Z,985.01
2022-12-31T05:08:19.749Z,985.05
2022-12-31T05:09:19.725Z,985.02
2022-12-31T05:10:19.981Z,985.02
2022-12-31T05:11:19.721Z,985.00
2022-12-31T05:12:19.692Z,984.91
2022-12-31T05:13:19.727Z,984.93
2022-12-31T05:14:19.664Z,985.01
2022-12-31T05:15:19.645Z,984.93
2022-12-31T05:16:19.752Z,985.01
2022-12-31T05:17:19.630Z,985.01
2022-12-31T05:18:19.642Z,984.99
2022-12-31T05:19:19.647Z,985.00
2022-12-31T05:20:19.619Z,985.05
2022-12-31T05:21:19.636Z,985.02
2022-12-31T05:22:19.610Z,984.99
2022-12-31T05:23:19.677Z,984.98
2022-12-31T05:24:19.673Z,985.05
2022-12-31T05:25:19.628Z,985.12
2022-12-31T05:26:19.597Z,985.04
2022-12-31T05:27:19.619Z,985.02
2022-12-31T05:28:19.573Z,985.05
2022-12-31T05:29:19.560Z,985.08
2022-12-31T05:30:19.556Z,985.03
2022-12-31T05:31:19.615Z,985.07
2022-12-31T05:32:19.522Z,985.08
2022-12-31T05:33:19.517Z,985.06
2022-12-31T05:34:19.528Z,985.11
2022-12-31T05:35:19.540Z,985.02
2022-12-31T05:36:19.519Z,985.12
2022-12-31T05:37:19.687Z,985.12
2022-12-31T05:38:19.501Z,985.11
2022-12-31T05:39:19.490Z,985.05
2022-12-31T05:40:19.518Z,985.10
2022-12-31T05:41:19.515Z,985.05
2022-12-31T05:42:19.469Z,984.99
2022-12-31T05:43:19.468Z,984.92
2022-12-31T05:44:19.493Z,984.90
2022-12-31T05:45:21.042Z,984.83
2022-12-31T05:46:19.498Z,984.90
2022-12-31T05:47:19.427Z,984.99
2022-12-31T05:48:19.470Z,984.98
2022-12-31T05:49:19.422Z,984.95
2022-12-31T05:50:19.393Z,985.07
2022-12-31T05:51:19.411Z,984.95
2022-12-31T05:52:19.369Z,985.17
2022-12-31T05:53:19.358Z,985.17
2022-12-31T05:54:19.364Z,985.19
2022-12-31T05:55:19.373Z,985.12
2022-12-31T05:56:19.376Z,985.04
2022-12-31T05:57:19.348Z,985.05
2022-12-31T05:58:19.348Z,985.08
2022-12-31T05:59:19.365Z,985.08
2022-12-31T06:00:19.329Z,985.11
2022-12-31T06:01:19.346Z,985.13
2022-12-31T06:02:19.320Z,985.04
2022-12-31T06:03:19.401Z,985.06
2022-12-31T06:04:19.279Z,985.13
2022-12-31T06:05:25.713Z,985.11
2022-12-31T06:06:19.305Z,985.07
2022-12-31T06:07:19.246Z,985.11
2022-12-31T06:08:19.257Z,985.14
2022-12-31T06:09:19.284Z,985.14
2022-12-31T06:10:19.240Z,985.18
2022-12-31T06:11:19.224Z,985.20
2022-12-31T06:12:19.230Z,985.18
2022-12-31T06:13:19.196Z,985.15
2022-12-31T06:14:19.211Z,985.10
2022-12-31T06:15:19.177Z,985.12
2022-12-31T06:16:19.215Z,985.07
2022-12-31T06:17:19.154Z,985.11
2022-12-31T06:18:19.144Z,985.16
2022-12-31T06:19:19.147Z,985.17
2022-12-31T06:20:19.165Z,985.11
2022-12-31T06:21:19.148Z,985.12
2022-12-31T06:22:19.387Z,985.13
2022-12-31T06:23:19.119Z,985.22
2022-12-31T06:24:19.131Z,985.18
2022-12-31T06:25:19.087Z,985.26
2022-12-31T06:26:19.142Z,985.21
2022-12-31T06:27:19.159Z,985.17
2022-12-31T06:28:20.568Z,985.23
2022-12-31T06:29:19.096Z,985.29
2022-12-31T06:30:19.078Z,985.31
2022-12-31T06:31:19.124Z,985.49
2022-12-31T06:32:19.048Z,985.34
2022-12-31T06:33:19.043Z,985.33
2022-12-31T06:34:19.047Z,985.36
2022-12-31T06:35:19.049Z,985.39
2022-12-31T06:36:19.055Z,985.39
2022-12-31T06:37:19.002Z,985.38
2022-12-31T06:38:19.242Z,985.38
2022-12-31T06:39:19.005Z,985.40
2022-12-31T06:40:18.995Z,985.49
2022-12-31T06:41:18.999Z,985.42
2022-12-31T06:42:18.973Z,985.41
2022-12-31T06:43:18.989Z,985.38
2022-12-31T06:44:19.034Z,985.38
2022-12-31T06:45:18.964Z,985.38
2022-12-31T06:46:18.959Z,985.39
2022-12-31T06:47:18.945Z,985.41
2022-12-31T06:48:18.941Z,985.49
2022-12-31T06:49:18.942Z,985.46
2022-12-31T06:50:18.923Z,985.43
2022-12-31T06:51:18.905Z,985.39
2022-12-31T06:52:18.890Z,985.42
2022-12-31T06:53:18.905Z,985.44
2022-12-31T06:54:19.085Z,985.46
2022-12-31T06:55:18.899Z,985.42
2022-12-31T06:56:18.890Z,985.38
2022-12-31T06:57:18.884Z,985.44
2022-12-31T06:58:18.904Z,985.44
2022-12-31T06:59:18.835Z,985.48
2022-12-31T07:00:18.849Z,985.50
2022-12-31T07:01:19.193Z,985.52
2022-12-31T07:02:18.913Z,985.55
2022-12-31T07:03:18.891Z,985.51
2022-12-31T07:04:19.005Z,985.56
2022-12-31T07:05:18.809Z,985.59
2022-12-31T07:06:18.775Z,985.52
2022-12-31T07:07:18.822Z,985.54
2022-12-31T07:08:18.814Z,985.62
2022-12-31T07:09:18.772Z,985.73
2022-12-31T07:10:22.719Z,985.67
2022-12-31T07:11:18.766Z,985.73
2022-12-31T07:12:18.722Z,985.74
2022-12-31T07:13:18.730Z,985.74
2022-12-31T07:14:18.749Z,985.76
2022-12-31T07:15:18.760Z,985.87
2022-12-31T07:16:18.820Z,985.72
2022-12-31T07:17:18.716Z,985.81
2022-12-31T07:18:18.897Z,985.83
2022-12-31T07:19:18.932Z,985.82
2022-12-31T07:20:18.679Z,985.84
2022-12-31T07:21:18.690Z,985.89
2022-12-31T07:22:18.671Z,985.77
2022-12-31T07:23:18.657Z,985.77
2022-12-31T07:24:18.636Z,985.73
2022-12-31T07:25:18.627Z,985.73
2022-12-31T07:26:18.624Z,985.74
2022-12-31T07:27:18.651Z,985.73
2022-12-31T07:28:18.605Z,985.82
2022-12-31T07:29:18.633Z,985.89
2022-12-31T07:30:18.611Z,985.85
2022-12-31T07:31:18.680Z,985.90
2022-12-31T07:32:18.639Z,985.89
2022-12-31T07:33:18.572Z,985.84
2022-12-31T07:34:18.584Z,985.86
2022-12-31T07:35:18.605Z,985.92
2022-12-31T07:36:18.596Z,985.95
2022-12-31T07:37:18.550Z,985.95
2022-12-31T07:38:18.543Z,986.00
2022-12-31T07:39:18.532Z,986.04
2022-12-31T07:40:18.551Z,986.05
2022-12-31T07:41:18.749Z,986.09
2022-12-31T07:42:18.726Z,986.00
2022-12-31T07:43:18.505Z,986.07
2022-12-31T07:44:18.504Z,986.07
2022-12-31T07:45:18.491Z,986.08
2022-12-31T07:46:18.497Z,986.10
2022-12-31T07:47:18.480Z,986.08
2022-12-31T07:48:18.517Z,986.07
2022-12-31T07:49:18.669Z,986.08
2022-12-31T07:50:18.481Z,986.03
2022-12-31T07:51:18.469Z,986.08
2022-12-31T07:52:18.450Z,986.07
2022-12-31T07:53:18.473Z,986.10
2022-12-31T07:54:18.423Z,986.09
2022-12-31T07:55:18.438Z,986.13
2022-12-31T07:56:18.419Z,986.06
2022-12-31T07:57:18.423Z,986.12
2022-12-31T07:58:18.432Z,986.15
2022-12-31T07:59:23.903Z,986.08
2022-12-31T08:00:18.387Z,986.08
2022-12-31T08:01:18.445Z,986.12
2022-12-31T08:02:18.528Z,986.08
2022-12-31T08:03:18.342Z,986.14
2022-12-31T08:04:18.387Z,986.12
2022-12-31T08:05:18.324Z,986.09
2022-12-31T08:06:18.341Z,986.11
2022-12-31T08:07:18.328Z,986.13
2022-12-31T08:08:18.322Z,986.10
2022-12-31T08:09:18.311Z,986.10
2022-12-31T08:10:18.561Z,986.03
2022-12-31T08:11:18.287Z,986.02
2022-12-31T08:12:18.331Z,986.03
2022-12-31T08:13:18.315Z,985.99
2022-12-31T08:14:18.292Z,986.07
2022-12-31T08:15:18.280Z,986.08
2022-12-31T08:16:18.313Z,986.20
2022-12-31T08:17:18.287Z,986.12
2022-12-31T08:18:18.234Z,986.16
2022-12-31T08:19:18.431Z,986.22
2022-12-31T08:20:18.247Z,986.21
2022-12-31T08:21:18.217Z,986.31
2022-12-31T08:22:18.240Z,986.41
2022-12-31T08:23:18.329Z,986.42
2022-12-31T08:24:18.202Z,986.54
2022-12-31T08:25:18.193Z,986.56
2022-12-31T08:26:18.182Z,986.48
2022-12-31T08:27:18.191Z,986.58
2022-12-31T08:28:18.211Z,986.59
2022-12-31T08:29:18.178Z,986.61
2022-12-31T08:30:18.155Z,986.66
2022-12-31T08:31:18.206Z,986.66
2022-12-31T08:32:18.175Z,986.70
2022-12-31T08:33:18.164Z,986.80
2022-12-31T08:34:18.142Z,986.81
2022-12-31T08:35:18.153Z,986.80
2022-12-31T08:36:18.146Z,986.78
2022-12-31T08:37:18.138Z,986.81
2022-12-31T08:38:18.114Z,986.83
2022-12-31T08:39:18.098Z,986.85
2022-12-31T08:40:18.079Z,986.88
2022-12-31T08:41:18.097Z,986.92
2022-12-31T08:42:18.128Z,986.88
2022-12-31T08:43:18.201Z,986.90
2022-12-31T08:44:18.063Z,986.93
2022-12-31T08:45:18.092Z,987.04
2022-12-31T08:46:18.135Z,987.04
2022-12-31T08:47:18.312Z,986.98
2022-12-31T08:48:18.088Z,986.98
2022-12-31T08:49:18.016Z,987.01
2022-12-31T08:50:18.204Z,987.01
2022-12-31T08:51:18.037Z,986.93
2022-12-31T08:52:18.086Z,986.92
2022-12-31T08:53:17.998Z,986.92
2022-12-31T08:54:18.015Z,986.94
2022-12-31T08:55:18.019Z,986.84
2022-12-31T08:56:18.013Z,986.91
2022-12-31T08:57:18.007Z,986.87
2022-12-31T08:58:18.001Z,986.89
2022-12-31T08:59:17.993Z,986.91
2022-12-31T09:00:17.940Z,986.92
2022-12-31T09:01:18.284Z,986.89
2022-12-31T09:02:18.199Z,986.85
2022-12-31T09:03:17.958Z,986.82
2022-12-31T09:04:17.950Z,986.79
2022-12-31T09:05:17.915Z,986.80
2022-12-31T09:06:17.894Z,986.86
2022-12-31T09:07:17.891Z,986.83
2022-12-31T09:08:17.939Z,986.84
2022-12-31T09:09:17.877Z,986.92
2022-12-31T09:10:17.901Z,986.89
2022-12-31T09:11:22.812Z,986.90
2022-12-31T09:12:17.924Z,986.89
2022-12-31T09:13:17.860Z,986.88
2022-12-31T09:14:17.841Z,986.90
2022-12-31T09:15:17.850Z,986.92
2022-12-31T09:16:17.914Z,986.98
2022-12-31T09:17:17.858Z,986.93
2022-12-31T09:18:17.828Z,986.91
2022-12-31T09:19:17.838Z,986.95
2022-12-31T09:20:17.818Z,987.02
2022-12-31T09:21:17.822Z,987.01
2022-12-31T09:22:17.812Z,986.93
2022-12-31T09:23:17.826Z,986.95
2022-12-31T09:24:18.027Z,986.96
2022-12-31T09:25:17.822Z,986.97
2022-12-31T09:26:17.769Z,987.04
2022-12-31T09:27:22.484Z,986.98
2022-12-31T09:28:17.758Z,986.98
2022-12-31T09:29:17.750Z,987.04
2022-12-31T09:30:17.778Z,987.03
2022-12-31T09:31:17.847Z,987.02
2022-12-31T09:32:17.730Z,987.02
2022-12-31T09:33:17.739Z,987.03
2022-12-31T09:34:17.725Z,987.07
2022-12-31T09:35:17.949Z,987.04
2022-12-31T09:36:17.713Z,987.07
2022-12-31T09:37:17.712Z,987.07
2022-12-31T09:38:17.697Z,987.11
2022-12-31T09:39:17.682Z,987.07
2022-12-31T09:40:17.712Z,987.07
2022-12-31T09:41:17.706Z,987.10
2022-12-31T09:42:17.678Z,987.06
2022-12-31T09:43:17.699Z,987.07
2022-12-31T09:44:17.647Z,987.07
2022-12-31T09:45:17.869Z,987.12
2022-12-31T09:46:17.794Z,987.12
2022-12-31T09:47:17.654Z,987.07
2022-12-31T09:48:17.623Z,987.13
2022-12-31T09:49:17.826Z,987.09
2022-12-31T09:50:17.594Z,987.07
2022-12-31T09:51:23.356Z,987.11
2022-12-31T09:52:17.600Z,987.17
2022-12-31T09:53:17.597Z,987.13
2022-12-31T09:54:17.595Z,987.17
2022-12-31T09:55:17.565Z,987.15
2022-12-31T09:56:17.571Z,987.19
2022-12-31T09:57:17.555Z,987.19
2022-12-31T09:58:17.559Z,987.13
2022-12-31T09:59:17.531Z,987.23
2022-12-31T10:00:17.527Z,987.26
2022-12-31T10:01:17.694Z,987.26
2022-12-31T10:02:17.700Z,987.24
2022-12-31T10:03:17.691Z,987.20
2022-12-31T10:04:17.526Z,987.22
2022-12-31T10:05:17.500Z,987.16
2022-12-31T10:06:17.504Z,987.17
2022-12-31T10:07:17.506Z,987.17
2022-12-31T10:08:17.506Z,987.19
2022-12-31T10:09:17.470Z,987.11
2022-12-31T10:10:17.535Z,987.15
2022-12-31T10:11:17.515Z,987.06
2022-12-31T10:12:17.504Z,987.03
2022-12-31T10:13:17.449Z,986.99
2022-12-31T10:14:17.443Z,986.95
2022-12-31T10:15:17.434Z,986.97
2022-12-31T10:16:17.464Z,986.93
2022-12-31T10:17:17.433Z,986.98
2022-12-31T10:18:17.426Z,986.96
2022-12-31T10:19:17.617Z,986.93
2022-12-31T10:20:17.407Z,986.89
2022-12-31T10:21:17.490Z,986.94
2022-12-31T10:22:17.397Z,987.00
2022-12-31T10:23:17.420Z,986.93
2022-12-31T10:24:17.385Z,986.98
2022-12-31T10:25:17.382Z,987.01
2022-12-31T10:26:17.366Z,986.99
2022-12-31T10:27:17.384Z,986.92
2022-12-31T10:28:17.579Z,987.02
2022-12-31T10:29:17.363Z,987.01
2022-12-31T10:30:17.600Z,987.06
2022-12-31T10:31:17.411Z,987.11
2022-12-31T10:32:17.345Z,987.04
2022-12-31T10:33:17.342Z,987.20
2022-12-31T10:34:17.381Z,987.20
2022-12-31T10:35:17.330Z,987.15
2022-12-31T10:36:17.307Z,987.13
2022-12-31T10:37:17.300Z,987.13
2022-12-31T10:38:17.306Z,987.19
2022-12-31T10:39:23.840Z,987.19
2022-12-31T10:40:17.380Z,987.18
2022-12-31T10:41:17.272Z,987.13
2022-12-31T10:42:17.258Z,987.16
2022-12-31T10:43:17.285Z,987.03
2022-12-31T10:44:17.321Z,987.10
2022-12-31T10:45:17.253Z,987.13
2022-12-31T10:46:22.668Z,987.16
2022-12-31T10:47:17.266Z,987.11
2022-12-31T10:48:17.241Z,987.10
2022-12-31T10:49:17.238Z,987.18
2022-12-31T10:50:17.298Z,987.12
2022-12-31T10:51:17.213Z,987.12
2022-12-31T10:52:17.207Z,987.12
2022-12-31T10:53:17.189Z,987.14
2022-12-31T10:54:17.202Z,987.15
2022-12-31T10:55:17.208Z,987.15
2022-12-31T10:56:17.193Z,987.14
2022-12-31T10:57:17.215Z,987.08
2022-12-31T10:58:17.199Z,987.10
2022-12-31T10:59:17.171Z,987.07
2022-12-31T11:00:17.371Z,987.05
2022-12-31T11:01:17.265Z,987.01
2022-12-31T11:02:17.392Z,987.11
2022-12-31T11:03:17.853Z,986.97
2022-12-31T11:04:17.151Z,986.95
2022-12-31T11:05:17.145Z,987.00
2022-12-31T11:06:17.149Z,987.07
2022-12-31T11:07:17.135Z,987.16
2022-12-31T11:08:17.127Z,987.10
2022-12-31T11:09:17.291Z,987.05
2022-12-31T11:10:17.102Z,987.12
2022-12-31T11:11:17.170Z,987.05
2022-12-31T11:12:17.102Z,987.21
2022-12-31T11:13:17.081Z,987.12
2022-12-31T11:14:17.119Z,987.14
2022-12-31T11:15:17.091Z,987.16
2022-12-31T11:16:17.150Z,987.11
2022-12-31T11:17:17.047Z,987.09
2022-12-31T11:18:17.073Z,987.17
2022-12-31T11:19:17.090Z,987.08
2022-12-31T11:20:17.054Z,987.09
2022-12-31T11:21:17.065Z,986.99
2022-12-31T11:22:17.007Z,986.99
2022-12-31T11:23:17.036Z,986.99
2022-12-31T11:24:17.251Z,986.99
2022-12-31T11:25:17.066Z,986.94
2022-12-31T11:26:16.990Z,986.95
2022-12-31T11:27:16.989Z,986.97
2022-12-31T11:28:16.968Z,986.92
2022-12-31T11:29:16.982Z,986.92
2022-12-31T11:30:17.008Z,986.88
2022-12-31T11:31:17.026Z,986.87
2022-12-31T11:32:16.974Z,986.86
2022-12-31T11:33:17.013Z,986.84
2022-12-31T11:34:16.956Z,986.94
2022-12-31T11:35:16.998Z,986.88
2022-12-31T11:36:16.937Z,986.87
2022-12-31T11:37:16.955Z,986.91
2022-12-31T11:38:16.931Z,986.92
2022-12-31T11:39:16.895Z,987.04
2022-12-31T11:40:16.914Z,987.09
2022-12-31T11:41:16.888Z,986.99
2022-12-31T11:42:16.894Z,987.00
2022-12-31T11:43:16.887Z,987.02
2022-12-31T11:44:16.890Z,987.02
2022-12-31T11:45:16.876Z,987.09
2022-12-31T11:46:16.964Z,987.09
2022-12-31T11:47:16.864Z,987.15
2022-12-31T11:48:32.882Z,987.17
2022-12-31T11:49:16.867Z,987.22
2022-12-31T11:50:17.055Z,987.14
2022-12-31T11:51:16.860Z,987.16
2022-12-31T11:52:21.170Z,987.24
2022-12-31T11:53:16.809Z,987.20
2022-12-31T11:54:16.814Z,987.21
2022-12-31T11:55:17.226Z,987.25
2022-12-31T11:56:16.812Z,987.20
2022-12-31T11:57:16.834Z,987.15
2022-12-31T11:58:16.816Z,987.19
2022-12-31T11:59:19.604Z,987.21
2022-12-31T12:00:16.768Z,987.18
2022-12-31T12:01:16.794Z,987.24
2022-12-31T12:02:16.766Z,987.22
2022-12-31T12:03:16.767Z,987.16
2022-12-31T12:04:17.025Z,987.14
2022-12-31T12:05:16.991Z,987.20
2022-12-31T12:06:16.758Z,987.14
2022-12-31T12:07:16.743Z,987.07
2022-12-31T12:08:16.747Z,987.05
2022-12-31T12:09:16.745Z,987.14
2022-12-31T12:10:16.752Z,987.13
2022-12-31T12:11:16.719Z,987.17
2022-12-31T12:12:16.706Z,987.20
2022-12-31T12:13:16.685Z,987.18
2022-12-31T12:14:16.717Z,987.18
2022-12-31T12:15:16.682Z,987.12
2022-12-31T12:16:16.747Z,987.18
2022-12-31T12:17:16.671Z,987.13
2022-12-31T12:18:16.672Z,987.13
2022-12-31T12:19:16.668Z,987.10
2022-12-31T12:20:16.671Z,987.13
2022-12-31T12:21:16.650Z,987.19
2022-12-31T12:22:16.633Z,987.22
2022-12-31T12:23:16.733Z,987.17
2022-12-31T12:24:16.627Z,987.20
2022-12-31T12:25:16.619Z,987.22
2022-12-31T12:26:16.597Z,987.20
2022-12-31T12:27:16.802Z,987.17
2022-12-31T12:28:16.595Z,987.22